MCY weather

Sunshine Coast Airport
Maroochydore, Queensland, Australia

Public forecast

Using degrees Celsius for public forecast. Weather courtesy of forecast.io.

METAR (pilot weather report)

Closest report is Brisbane International Airport, 46.9 nm (86.9 km) S. Retrieved 2019/01/24 11:00 UTC (6 minutes ago):

YBBN 241100Z 03009KT CAVOK 26/20 Q1015 NOSIG

TAF (pilot weather forecast)

Closest forecast is Brisbane International Airport, 46.9 nm (86.9 km) S. Retrieved 2019/01/24 06:00 UTC (5 hours ago):

TAF YBBN 240516Z 2406/2512 03014KT 9999 FEW030 FM240900 02007KT 9999 SCT025 FM241600 VRB05KT 9999 -SHRA SCT020 SCT035 FM242200 08006KT 9999 -SHRA SCT030 SCT050 FM250300 06012KT 9999 SCT030 FM251000 03007KT 9999 SCT020